Terminal Aerodrome Forecast
Issued by NWS Sterling, VA

Home | Current Version | Previous Version | Text Only | Print | Product List | Glossary On
Versions: 1 2 3 4 5 6 7 8 9 10 11 12 13 14 15 16 17 18 19 20 21 22
835
FTUS41 KLWX 251729
TAFBWI
TAF
KBWI 251729Z 2518/2624 05004KT P6SM FEW050 SCT250
     FM261200 13004KT P6SM SCT100 BKN110
     FM261600 15008KT P6SM SCT025 BKN050=

USA.gov is the U.S. government's official web portal to all federal, state and local government web resources and services.